createdAt,value
2023-03-02T00:02:02.039Z,4.05
2023-03-02T00:04:47.221Z,5.40
2023-03-02T00:07:21.186Z,3.05
2023-03-02T00:09:51.520Z,12.30
2023-03-02T00:12:19.901Z,6.18
2023-03-02T00:14:48.067Z,7.35
2023-03-02T00:17:16.372Z,9.70
2023-03-02T00:19:48.198Z,11.93
2023-03-02T00:22:16.557Z,4.93
2023-03-02T00:24:44.976Z,8.82
2023-03-02T00:27:13.140Z,5.60
2023-03-02T00:29:43.000Z,14.00
2023-03-02T00:32:18.121Z,7.65
2023-03-02T00:34:47.066Z,7.75
2023-03-02T00:37:15.489Z,5.80
2023-03-02T00:39:47.264Z,7.10
2023-03-02T00:42:16.017Z,12.37
2023-03-02T00:44:44.120Z,10.25
2023-03-02T00:47:12.792Z,17.15
2023-03-02T00:49:42.016Z,8.30
2023-03-02T00:52:10.147Z,11.15
2023-03-02T00:54:38.162Z,13.65
2023-03-02T00:57:06.809Z,7.53
2023-03-02T00:59:37.630Z,6.50
2023-03-02T01:02:07.085Z,3.47
2023-03-02T01:04:38.934Z,8.05
2023-03-02T01:07:17.370Z,7.15
2023-03-02T01:09:48.609Z,8.35
2023-03-02T01:12:17.123Z,5.37
2023-03-02T01:14:47.793Z,7.47
2023-03-02T01:17:16.739Z,6.55
2023-03-02T01:19:45.401Z,3.45
2023-03-02T01:22:14.477Z,5.50
2023-03-02T01:24:42.661Z,2.58
2023-03-02T01:27:11.481Z,6.80
2023-03-02T01:29:40.048Z,4.93
2023-03-02T01:32:08.363Z,5.43
2023-03-02T01:34:36.541Z,6.07
2023-03-02T01:37:04.867Z,4.80
2023-03-02T01:39:33.933Z,4.03
2023-03-02T01:42:02.158Z,6.82
2023-03-02T01:44:35.560Z,4.87
2023-03-02T01:47:16.997Z,4.22
2023-03-02T01:49:55.500Z,10.05
2023-03-02T01:52:26.211Z,3.15
2023-03-02T01:54:59.109Z,3.08
2023-03-02T01:57:33.142Z,2.55
2023-03-02T02:00:10.240Z,2.85
2023-03-02T02:02:42.028Z,3.80
2023-03-02T02:05:18.491Z,5.40
2023-03-02T02:07:47.337Z,6.43
2023-03-02T02:10:16.911Z,5.15
2023-03-02T02:12:46.356Z,3.70
2023-03-02T02:15:14.860Z,2.80
2023-03-02T02:17:42.995Z,4.75
2023-03-02T02:20:37.866Z,2.83
2023-03-02T02:23:28.230Z,1.45
2023-03-02T02:25:59.987Z,1.62
2023-03-02T02:28:33.598Z,1.20
2023-03-02T02:31:26.843Z,6.45
2023-03-02T02:34:17.229Z,1.17
2023-03-02T02:36:49.508Z,3.05
2023-03-02T02:39:23.801Z,3.05
2023-03-02T02:41:57.679Z,3.70
2023-03-02T02:44:26.829Z,3.03
2023-03-02T02:46:55.168Z,2.47
2023-03-02T02:49:38.751Z,2.50
2023-03-02T02:52:10.278Z,1.95
2023-03-02T02:54:39.033Z,3.75
2023-03-02T02:57:07.957Z,2.10
2023-03-02T02:59:43.103Z,5.97
2023-03-02T03:04:45.568Z,13.82
2023-03-02T03:07:21.754Z,6.12
2023-03-02T03:10:01.002Z,3.72
2023-03-02T03:12:33.739Z,3.75
2023-03-02T03:15:04.333Z,3.85
2023-03-02T03:17:32.808Z,3.33
2023-03-02T03:20:09.522Z,5.93
2023-03-02T03:22:40.743Z,5.82
2023-03-02T03:25:09.745Z,2.53
2023-03-02T03:27:38.301Z,2.15
2023-03-02T03:30:07.548Z,5.28
2023-03-02T03:32:36.823Z,2.97
2023-03-02T03:35:08.827Z,2.97
2023-03-02T03:37:38.519Z,10.65
2023-03-02T03:40:09.664Z,3.75
2023-03-02T03:42:40.109Z,2.85
2023-03-02T03:45:09.363Z,8.00
2023-03-02T03:47:38.104Z,3.50
2023-03-02T03:50:08.448Z,2.30
2023-03-02T03:52:38.629Z,3.35
2023-03-02T03:55:07.992Z,1.90
2023-03-02T03:57:36.536Z,2.55
2023-03-02T04:00:10.645Z,1.62
2023-03-02T04:02:43.021Z,4.12
2023-03-02T04:05:12.876Z,2.33
2023-03-02T04:07:42.375Z,1.40
2023-03-02T04:10:12.437Z,2.12
2023-03-02T04:12:47.214Z,1.95
2023-03-02T04:15:16.661Z,0.93
2023-03-02T04:17:46.199Z,2.35
2023-03-02T04:20:19.224Z,2.47
2023-03-02T04:22:52.744Z,2.60
2023-03-02T04:25:23.474Z,2.50
2023-03-02T04:27:53.601Z,1.17
2023-03-02T04:30:25.465Z,2.05
2023-03-02T04:32:54.648Z,2.08
2023-03-02T04:35:23.363Z,1.05
2023-03-02T04:37:51.859Z,0.77
2023-03-02T04:40:20.570Z,3.60
2023-03-02T04:42:48.763Z,0.98
2023-03-02T04:45:17.221Z,1.55
2023-03-02T04:47:45.761Z,1.17
2023-03-02T04:50:15.429Z,1.85
2023-03-02T04:52:43.729Z,1.52
2023-03-02T04:55:20.938Z,1.65
2023-03-02T04:57:49.626Z,3.95
2023-03-02T05:00:19.341Z,1.00
2023-03-02T05:02:51.188Z,1.80
2023-03-02T05:05:23.430Z,4.68
2023-03-02T05:07:52.174Z,1.50
2023-03-02T05:10:23.005Z,0.77
2023-03-02T05:13:05.402Z,0.57
2023-03-02T05:15:39.512Z,3.37
2023-03-02T05:18:11.886Z,2.20
2023-03-02T05:20:40.396Z,1.80
2023-03-02T05:23:10.633Z,2.42
2023-03-02T05:25:39.168Z,2.12
2023-03-02T05:28:07.864Z,2.45
2023-03-02T05:30:38.886Z,2.08
2023-03-02T05:33:08.815Z,3.80
2023-03-02T05:35:37.594Z,7.72
2023-03-02T05:38:05.944Z,2.05
2023-03-02T05:40:34.223Z,1.05
2023-03-02T05:43:03.602Z,2.05
2023-03-02T05:45:35.302Z,0.70
2023-03-02T05:48:05.482Z,1.05
2023-03-02T05:50:33.972Z,2.28
2023-03-02T05:53:02.649Z,2.35
2023-03-02T05:55:37.222Z,6.00
2023-03-02T05:58:14.501Z,4.05
2023-03-02T06:00:43.705Z,8.05
2023-03-02T06:03:13.047Z,2.05
2023-03-02T06:05:41.302Z,2.25
2023-03-02T06:08:10.030Z,7.95
2023-03-02T06:10:39.298Z,2.80
2023-03-02T06:13:07.541Z,2.58
2023-03-02T06:15:35.826Z,5.30
2023-03-02T06:18:04.464Z,4.80
2023-03-02T06:20:32.817Z,11.82
2023-03-02T06:23:01.245Z,5.15
2023-03-02T06:25:29.786Z,6.93
2023-03-02T06:27:58.410Z,5.80
2023-03-02T06:30:28.152Z,22.65
2023-03-02T06:32:56.840Z,7.00
2023-03-02T06:35:25.359Z,12.10
2023-03-02T06:37:53.627Z,18.23
2023-03-02T06:40:22.324Z,12.13
2023-03-02T06:42:50.659Z,8.07
2023-03-02T06:45:18.928Z,8.63
2023-03-02T06:47:47.272Z,4.47
2023-03-02T06:50:17.212Z,6.87
2023-03-02T06:52:45.402Z,8.35
2023-03-02T06:55:13.921Z,7.03
2023-03-02T06:57:42.252Z,4.62
2023-03-02T07:00:25.823Z,3.55
2023-03-02T07:02:57.028Z,15.48
2023-03-02T07:05:25.440Z,14.45
2023-03-02T07:07:53.619Z,11.10
2023-03-02T07:10:22.742Z,16.25
2023-03-02T07:12:50.934Z,17.10
2023-03-02T07:15:19.079Z,11.75
2023-03-02T07:17:48.274Z,8.80
2023-03-02T07:20:18.527Z,6.45
2023-03-02T07:22:52.335Z,7.72
2023-03-02T07:25:21.174Z,6.65
2023-03-02T07:27:49.654Z,6.70
2023-03-02T07:30:21.407Z,6.37
2023-03-02T07:32:50.808Z,10.45
2023-03-02T07:35:19.209Z,6.90
2023-03-02T07:37:47.629Z,9.15
2023-03-02T07:40:16.482Z,7.30
2023-03-02T07:42:44.708Z,5.75
2023-03-02T07:45:17.006Z,8.70
2023-03-02T07:47:45.590Z,6.85
2023-03-02T07:50:13.734Z,6.97
2023-03-02T07:52:45.313Z,7.62
2023-03-02T07:55:13.957Z,7.35
2023-03-02T07:57:42.127Z,5.95
2023-03-02T08:00:11.525Z,9.40
2023-03-02T08:02:42.514Z,8.15
2023-03-02T08:05:12.632Z,7.15
2023-03-02T08:07:41.021Z,7.57
2023-03-02T08:10:10.587Z,13.75
2023-03-02T08:12:44.224Z,9.98
2023-03-02T08:15:12.383Z,9.55
2023-03-02T08:17:40.805Z,5.85
2023-03-02T08:20:11.585Z,4.87
2023-03-02T08:22:40.676Z,9.52
2023-03-02T08:25:09.419Z,6.90
2023-03-02T08:27:40.327Z,4.82
2023-03-02T08:30:10.918Z,4.85
2023-03-02T08:32:45.963Z,5.15
2023-03-02T08:35:14.578Z,1.98
2023-03-02T08:37:42.796Z,2.45
2023-03-02T08:40:15.169Z,1.48
2023-03-02T08:42:49.884Z,2.50
2023-03-02T08:45:20.952Z,3.37
2023-03-02T08:47:49.450Z,3.08
2023-03-02T08:50:18.042Z,2.08
2023-03-02T08:52:47.551Z,2.75
2023-03-02T08:55:18.680Z,4.40
2023-03-02T08:57:47.713Z,3.05
2023-03-02T09:00:19.044Z,2.65
2023-03-02T09:02:47.777Z,4.75
2023-03-02T09:05:16.357Z,5.25
2023-03-02T09:07:44.617Z,8.23
2023-03-02T09:10:13.340Z,1.75
2023-03-02T09:12:42.898Z,5.60
2023-03-02T09:15:11.076Z,3.15
2023-03-02T09:17:39.254Z,8.05
2023-03-02T09:20:08.868Z,3.37
2023-03-02T09:22:42.715Z,4.12
2023-03-02T09:25:11.397Z,5.40
2023-03-02T09:27:39.544Z,2.92
2023-03-02T09:30:09.483Z,2.65
2023-03-02T09:32:42.863Z,2.83
2023-03-02T09:35:11.283Z,3.85
2023-03-02T09:37:39.854Z,11.85
2023-03-02T09:40:20.844Z,3.45
2023-03-02T09:43:03.950Z,7.43
2023-03-02T09:45:56.913Z,4.12
2023-03-02T09:48:37.582Z,17.80
2023-03-02T09:51:08.564Z,2.00
2023-03-02T09:53:37.262Z,2.00
2023-03-02T09:56:17.585Z,2.85
2023-03-02T09:58:58.203Z,4.85
2023-03-02T10:01:35.867Z,3.37
2023-03-02T10:04:19.067Z,2.42
2023-03-02T10:06:48.671Z,4.30
2023-03-02T10:09:17.498Z,2.55
2023-03-02T10:12:12.516Z,3.90
2023-03-02T10:15:11.641Z,5.30
2023-03-02T10:17:55.144Z,3.40
2023-03-02T10:20:34.205Z,3.53
2023-03-02T10:23:13.183Z,3.58
2023-03-02T10:25:50.269Z,4.40
2023-03-02T10:28:22.077Z,2.10
2023-03-02T10:31:17.866Z,2.65
2023-03-02T10:33:46.133Z,3.10
2023-03-02T10:36:37.623Z,3.65
2023-03-02T10:39:17.110Z,2.08
2023-03-02T10:41:45.726Z,4.10
2023-03-02T10:44:21.617Z,2.03
2023-03-02T10:46:51.354Z,2.05
2023-03-02T10:49:39.435Z,3.60
2023-03-02T10:52:18.138Z,2.55
2023-03-02T10:54:47.613Z,2.30
2023-03-02T10:57:38.559Z,3.45
2023-03-02T11:00:37.194Z,3.55
2023-03-02T11:03:21.089Z,5.68
2023-03-02T11:05:50.269Z,3.12
2023-03-02T11:08:24.832Z,2.22
2023-03-02T11:11:01.006Z,2.28
2023-03-02T11:13:36.962Z,4.10
2023-03-02T11:16:22.532Z,4.80
2023-03-02T11:19:14.461Z,4.57
2023-03-02T11:21:55.884Z,3.70
2023-03-02T11:24:36.751Z,5.32
2023-03-02T11:27:16.654Z,8.25
2023-03-02T11:29:52.204Z,3.10
2023-03-02T11:32:45.824Z,3.17
2023-03-02T11:35:21.581Z,1.83
2023-03-02T11:37:53.384Z,2.45
2023-03-02T11:40:30.371Z,1.55
2023-03-02T11:43:01.231Z,2.50
2023-03-02T11:45:42.075Z,3.65
2023-03-02T11:48:27.905Z,3.50
2023-03-02T11:51:10.840Z,3.60
2023-03-02T11:54:00.090Z,3.22
2023-03-02T11:56:31.795Z,2.30
2023-03-02T11:59:05.021Z,1.98
2023-03-02T12:01:36.216Z,1.92
2023-03-02T12:04:25.579Z,2.67
2023-03-02T12:06:54.003Z,3.53
2023-03-02T12:09:22.477Z,3.85
2023-03-02T12:12:23.661Z,4.30
2023-03-02T12:14:52.778Z,2.33
2023-03-02T12:17:30.836Z,2.65
2023-03-02T12:20:08.988Z,2.42
2023-03-02T12:22:38.004Z,2.92
2023-03-02T12:25:28.796Z,3.53
2023-03-02T12:27:57.074Z,2.58
2023-03-02T12:30:28.281Z,2.62
2023-03-02T12:33:11.423Z,3.28
2023-03-02T12:35:40.002Z,7.97
2023-03-02T12:38:41.773Z,4.32
2023-03-02T12:41:36.375Z,2.25
2023-03-02T12:44:21.269Z,1.62
2023-03-02T12:46:51.555Z,2.75
2023-03-02T12:49:46.743Z,3.85
2023-03-02T12:52:41.491Z,3.83
2023-03-02T12:55:09.654Z,2.42
2023-03-02T12:57:46.811Z,2.70
2023-03-02T13:00:19.780Z,3.12
2023-03-02T13:02:50.749Z,2.75
2023-03-02T13:05:22.743Z,2.65
2023-03-02T13:08:02.474Z,6.47
2023-03-02T13:10:39.935Z,1.70
2023-03-02T13:13:38.358Z,4.40
2023-03-02T13:16:19.924Z,5.37
2023-03-02T13:18:53.777Z,1.92
2023-03-02T13:21:25.205Z,2.83
2023-03-02T13:23:54.131Z,2.25
2023-03-02T13:26:30.132Z,2.17
2023-03-02T13:29:23.073Z,3.67
2023-03-02T13:31:51.616Z,2.10
2023-03-02T13:34:33.351Z,1.80
2023-03-02T13:37:01.768Z,3.97
2023-03-02T13:39:32.040Z,1.70
2023-03-02T13:42:03.236Z,1.92
2023-03-02T13:44:34.142Z,1.80
2023-03-02T13:47:03.969Z,2.65
2023-03-02T13:49:35.612Z,3.53
2023-03-02T13:52:17.395Z,2.62
2023-03-02T13:54:48.068Z,2.92
2023-03-02T13:57:30.796Z,4.07
2023-03-02T14:00:00.578Z,5.12
2023-03-02T14:02:30.875Z,5.90
2023-03-02T14:04:59.675Z,2.15
2023-03-02T14:07:30.623Z,3.70
2023-03-02T14:10:00.160Z,3.22
2023-03-02T14:12:33.022Z,1.80
2023-03-02T14:15:03.433Z,2.08
2023-03-02T14:17:31.953Z,4.68
2023-03-02T14:20:00.798Z,2.05
2023-03-02T14:22:30.235Z,2.70
2023-03-02T14:24:58.757Z,4.00
2023-03-02T14:27:30.492Z,3.15
2023-03-02T14:30:00.798Z,4.22
2023-03-02T14:32:29.309Z,4.70
2023-03-02T14:34:57.619Z,1.92
2023-03-02T14:37:29.064Z,4.20
2023-03-02T14:40:00.185Z,1.92
2023-03-02T14:42:29.072Z,2.87
2023-03-02T14:44:57.156Z,3.45
2023-03-02T14:47:25.436Z,4.70
2023-03-02T14:49:55.348Z,5.68
2023-03-02T14:52:35.868Z,2.03
2023-03-02T14:55:25.697Z,4.25
2023-03-02T14:58:04.984Z,3.25
2023-03-02T15:00:33.607Z,1.55
2023-03-02T15:03:02.313Z,2.05
2023-03-02T15:05:30.463Z,2.00
2023-03-02T15:07:59.034Z,2.35
2023-03-02T15:10:27.650Z,2.60
2023-03-02T15:12:55.738Z,1.95
2023-03-02T15:15:25.039Z,1.58
2023-03-02T15:17:53.830Z,1.27
2023-03-02T15:20:25.163Z,2.08
2023-03-02T15:22:53.626Z,2.47
2023-03-02T15:25:24.017Z,5.12
2023-03-02T15:27:53.328Z,2.28
2023-03-02T15:30:24.349Z,2.12
2023-03-02T15:32:54.911Z,4.00
2023-03-02T15:35:23.328Z,1.20
2023-03-02T15:37:52.511Z,2.12
2023-03-02T15:40:23.549Z,2.55
2023-03-02T15:42:53.152Z,3.95
2023-03-02T15:45:21.248Z,5.50
2023-03-02T15:47:50.378Z,7.75
2023-03-02T15:50:19.919Z,3.15
2023-03-02T15:52:48.390Z,3.08
2023-03-02T15:55:17.232Z,4.00
2023-03-02T15:57:45.599Z,2.67
2023-03-02T16:00:16.760Z,5.68
2023-03-02T16:02:49.123Z,3.58
2023-03-02T16:05:17.643Z,4.80
2023-03-02T16:07:46.528Z,5.22
2023-03-02T16:10:16.803Z,9.05
2023-03-02T16:12:47.700Z,10.25
2023-03-02T16:15:16.642Z,6.95
2023-03-02T16:17:44.894Z,14.65
2023-03-02T16:20:13.662Z,8.73
2023-03-02T16:22:43.970Z,15.65
2023-03-02T16:25:12.396Z,12.68
2023-03-02T16:27:40.439Z,13.43
2023-03-02T16:30:11.249Z,13.32
2023-03-02T16:32:42.390Z,22.85
2023-03-02T16:35:10.973Z,22.45
2023-03-02T16:37:39.252Z,16.70
2023-03-02T16:40:08.807Z,13.32
2023-03-02T16:42:41.394Z,12.77
2023-03-02T16:45:10.033Z,14.57
2023-03-02T16:47:38.671Z,21.12
2023-03-02T16:50:10.727Z,16.65
2023-03-02T16:52:40.695Z,15.73
2023-03-02T16:55:13.789Z,14.68
2023-03-02T16:57:42.925Z,11.12
2023-03-02T17:00:15.001Z,8.85
2023-03-02T17:02:44.943Z,7.57
2023-03-02T17:05:15.121Z,6.28
2023-03-02T17:07:43.778Z,16.00
2023-03-02T17:10:21.515Z,4.87
2023-03-02T17:12:50.695Z,4.53
2023-03-02T17:15:18.881Z,5.30
2023-03-02T17:17:47.479Z,5.50
2023-03-02T17:20:20.946Z,6.87
2023-03-02T17:22:49.673Z,6.05
2023-03-02T17:25:18.584Z,5.05
2023-03-02T17:27:48.891Z,6.90
2023-03-02T17:30:20.459Z,6.30
2023-03-02T17:32:49.984Z,7.07
2023-03-02T17:35:18.429Z,7.32
2023-03-02T17:37:47.047Z,19.92
2023-03-02T17:40:17.359Z,15.27
2023-03-02T17:42:47.511Z,9.43
2023-03-02T17:45:18.885Z,11.12
2023-03-02T17:47:49.334Z,10.50
2023-03-02T17:50:21.880Z,7.12
2023-03-02T17:52:51.362Z,8.40
2023-03-02T17:55:20.388Z,12.10
2023-03-02T17:57:49.089Z,8.68
2023-03-02T18:00:23.217Z,9.52
2023-03-02T18:02:53.833Z,13.62
2023-03-02T18:05:22.282Z,11.35
2023-03-02T18:07:52.569Z,6.60
2023-03-02T18:10:22.034Z,8.50
2023-03-02T18:12:52.759Z,6.22
2023-03-02T18:15:24.094Z,11.48
2023-03-02T18:17:52.885Z,9.07
2023-03-02T18:20:22.017Z,6.75
2023-03-02T18:22:51.199Z,6.47
2023-03-02T18:25:19.378Z,8.50
2023-03-02T18:27:47.528Z,4.97
2023-03-02T18:30:18.477Z,5.93
2023-03-02T18:32:49.915Z,6.43
2023-03-02T18:35:19.758Z,9.90
2023-03-02T18:37:48.075Z,10.98
2023-03-02T18:40:17.206Z,8.77
2023-03-02T18:42:46.831Z,7.00
2023-03-02T18:45:24.020Z,9.27
2023-03-02T18:47:53.404Z,8.43
2023-03-02T18:50:23.247Z,11.43
2023-03-02T18:52:52.942Z,7.87
2023-03-02T18:55:24.132Z,5.28
2023-03-02T18:57:54.075Z,6.37
2023-03-02T19:00:28.321Z,10.13
2023-03-02T19:02:57.325Z,10.20
2023-03-02T19:05:27.142Z,8.38
2023-03-02T19:07:57.664Z,9.18
2023-03-02T19:10:26.783Z,12.93
2023-03-02T19:12:55.552Z,10.82
2023-03-02T19:15:25.175Z,7.07
2023-03-02T19:17:54.228Z,7.72
2023-03-02T19:20:22.680Z,6.00
2023-03-02T19:22:51.114Z,8.93
2023-03-02T19:25:20.060Z,5.20
2023-03-02T19:27:48.626Z,3.90
2023-03-02T19:30:23.064Z,5.43
2023-03-02T19:32:54.891Z,5.45
2023-03-02T19:35:27.154Z,4.68
2023-03-02T19:37:56.152Z,8.65
2023-03-02T19:40:29.000Z,4.65
2023-03-02T19:42:58.474Z,6.68
2023-03-02T19:45:29.742Z,4.00
2023-03-02T19:48:00.587Z,8.30
2023-03-02T19:50:29.723Z,4.28
2023-03-02T19:52:59.217Z,10.73
2023-03-02T19:55:28.153Z,7.85
2023-03-02T19:57:59.830Z,6.72
2023-03-02T20:00:32.239Z,6.62
2023-03-02T20:03:01.332Z,5.57
2023-03-02T20:05:29.834Z,6.43
2023-03-02T20:07:58.554Z,3.62
2023-03-02T20:10:32.578Z,7.60
2023-03-02T20:13:01.797Z,3.65
2023-03-02T20:15:32.332Z,3.90
2023-03-02T20:18:02.872Z,5.20
2023-03-02T20:20:33.445Z,3.45
2023-03-02T20:23:02.279Z,5.45
2023-03-02T20:25:31.521Z,6.37
2023-03-02T20:28:00.867Z,5.43
2023-03-02T20:30:40.448Z,7.57
2023-03-02T20:33:10.233Z,9.70
2023-03-02T20:35:41.202Z,5.20
2023-03-02T20:38:16.520Z,4.32
2023-03-02T20:40:45.821Z,7.97
2023-03-02T20:43:14.750Z,8.95
2023-03-02T20:45:43.885Z,6.15
2023-03-02T20:48:13.186Z,7.12
2023-03-02T20:50:42.750Z,12.07
2023-03-02T20:53:11.997Z,12.50
2023-03-02T20:55:42.191Z,20.17
2023-03-02T20:58:11.745Z,12.65
2023-03-02T21:00:41.658Z,14.05
2023-03-02T21:03:10.408Z,19.40
2023-03-02T21:05:40.676Z,17.50
2023-03-02T21:08:14.935Z,23.80
2023-03-02T21:10:43.927Z,19.12
2023-03-02T21:13:13.204Z,19.83
2023-03-02T21:15:41.916Z,13.40
2023-03-02T21:18:11.013Z,12.40
2023-03-02T21:20:39.790Z,16.50
2023-03-02T21:23:08.201Z,18.30
2023-03-02T21:25:37.424Z,8.93
2023-03-02T21:28:05.869Z,9.85
2023-03-02T21:30:37.005Z,11.05
2023-03-02T21:33:05.563Z,17.30
2023-03-02T21:35:33.741Z,19.58
2023-03-02T21:38:05.056Z,16.62
2023-03-02T21:40:43.116Z,14.85
2023-03-02T21:43:16.135Z,18.77
2023-03-02T21:45:44.788Z,12.98
2023-03-02T21:48:14.055Z,8.10
2023-03-02T21:50:42.523Z,4.80
2023-03-02T21:53:11.095Z,6.22
2023-03-02T21:55:39.403Z,5.22
2023-03-02T21:58:07.733Z,6.55
2023-03-02T22:00:38.716Z,9.65
2023-03-02T22:03:07.360Z,11.60
2023-03-02T22:05:36.265Z,12.32
2023-03-02T22:08:04.754Z,12.27
2023-03-02T22:10:49.800Z,6.75
2023-03-02T22:13:33.267Z,8.15
2023-03-02T22:16:04.862Z,5.53
2023-03-02T22:18:33.807Z,9.88
2023-03-02T22:21:07.445Z,15.45
2023-03-02T22:23:35.823Z,10.45
2023-03-02T22:26:15.016Z,9.90
2023-03-02T22:28:43.555Z,17.48
2023-03-02T22:31:21.175Z,8.48
2023-03-02T22:33:50.429Z,8.82
2023-03-02T22:36:22.559Z,18.00
2023-03-02T22:38:51.642Z,4.65
2023-03-02T22:41:20.443Z,3.60
2023-03-02T22:43:49.612Z,5.43
2023-03-02T22:46:21.701Z,4.47
2023-03-02T22:48:51.857Z,7.95
2023-03-02T22:51:23.759Z,9.35
2023-03-02T22:53:55.184Z,8.73
2023-03-02T22:56:26.231Z,11.43
2023-03-02T22:58:56.605Z,4.72
2023-03-02T23:01:45.162Z,15.75
2023-03-02T23:04:25.055Z,8.63
2023-03-02T23:06:55.641Z,15.52
2023-03-02T23:09:30.538Z,9.90
2023-03-02T23:12:03.012Z,8.25
2023-03-02T23:14:41.767Z,14.73
2023-03-02T23:17:21.459Z,10.13
2023-03-02T23:19:52.982Z,9.45
2023-03-02T23:22:21.256Z,9.15
2023-03-02T23:24:49.711Z,8.60
2023-03-02T23:27:17.680Z,5.00
2023-03-02T23:29:46.234Z,5.93
2023-03-02T23:32:15.056Z,7.35
2023-03-02T23:34:44.169Z,4.37
2023-03-02T23:37:12.387Z,11.25
2023-03-02T23:39:40.812Z,8.90
2023-03-02T23:42:09.191Z,4.57
2023-03-02T23:44:37.318Z,4.62
2023-03-02T23:47:05.775Z,3.92
2023-03-02T23:49:34.036Z,9.02
2023-03-02T23:52:02.214Z,5.47
2023-03-02T23:54:30.525Z,9.55
2023-03-02T23:56:58.704Z,17.92
2023-03-02T23:59:27.829Z,17.45
